sensor_id;sensor_type;location;lat;lon;timestamp;pressure;altitude;pressure_sealevel;temperature;humidity
10909;BME280;5507;48.548;8.720;2022-12-16T00:02:08;71209.69;;;-0.59;100.00
10909;BME280;5507;48.548;8.720;2022-12-16T00:04:34;71217.19;;;-0.52;100.00
10909;BME280;5507;48.548;8.720;2022-12-16T00:06:59;71220.09;;;-0.50;100.00
10909;BME280;5507;48.548;8.720;2022-12-16T00:09:24;71227.63;;;-0.43;100.00
10909;BME280;5507;48.548;8.720;2022-12-16T00:11:50;71192.66;;;-0.76;100.00
10909;BME280;5507;48.548;8.720;2022-12-16T00:14:15;71207.00;;;-0.59;100.00
10909;BME280;5507;48.548;8.720;2022-12-16T00:16:40;71207.72;;;-0.63;100.00
10909;BME280;5507;48.548;8.720;2022-12-16T00:19:06;71211.63;;;-0.55;100.00
10909;BME280;5507;48.548;8.720;2022-12-16T00:21:31;71202.75;;;-0.65;100.00
10909;BME280;5507;48.548;8.720;2022-12-16T00:23:57;71208.09;;;-0.65;100.00
10909;BME280;5507;48.548;8.720;2022-12-16T00:26:22;71209.09;;;-0.59;100.00
10909;BME280;5507;48.548;8.720;2022-12-16T00:28:48;71198.66;;;-0.68;100.00
10909;BME280;5507;48.548;8.720;2022-12-16T00:31:13;71198.31;;;-0.66;100.00
10909;BME280;5507;48.548;8.720;2022-12-16T00:33:39;71219.53;;;-0.50;100.00
10909;BME280;5507;48.548;8.720;2022-12-16T00:36:05;71199.25;;;-0.68;100.00
10909;BME280;5507;48.548;8.720;2022-12-16T00:38:31;71190.00;;;-0.76;100.00
10909;BME280;5507;48.548;8.720;2022-12-16T00:40:56;71211.19;;;-0.60;100.00
10909;BME280;5507;48.548;8.720;2022-12-16T00:43:21;71216.06;;;-0.53;100.00
10909;BME280;5507;48.548;8.720;2022-12-16T00:45:47;71218.00;;;-0.49;100.00
10909;BME280;5507;48.548;8.720;2022-12-16T00:48:12;71215.59;;;-0.58;100.00
10909;BME280;5507;48.548;8.720;2022-12-16T00:50:38;71195.78;;;-0.71;100.00
10909;BME280;5507;48.548;8.720;2022-12-16T00:53:04;71214.91;;;-0.54;100.00
10909;BME280;5507;48.548;8.720;2022-12-16T00:55:30;71199.63;;;-0.70;100.00
10909;BME280;5507;48.548;8.720;2022-12-16T00:57:56;71207.38;;;-0.61;100.00
10909;BME280;5507;48.548;8.720;2022-12-16T01:00:22;71207.13;;;-0.63;100.00
10909;BME280;5507;48.548;8.720;2022-12-16T01:02:49;71207.00;;;-0.59;100.00
10909;BME280;5507;48.548;8.720;2022-12-16T01:05:16;71193.25;;;-0.75;100.00
10909;BME280;5507;48.548;8.720;2022-12-16T01:07:42;71209.81;;;-0.63;100.00
10909;BME280;5507;48.548;8.720;2022-12-16T01:10:08;71192.66;;;-0.76;100.00
10909;BME280;5507;48.548;8.720;2022-12-16T01:12:35;71198.81;;;-0.73;100.00
10909;BME280;5507;48.548;8.720;2022-12-16T01:15:02;71195.19;;;-0.71;100.00
10909;BME280;5507;48.548;8.720;2022-12-16T01:17:28;71188.03;;;-0.80;100.00
10909;BME280;5507;48.548;8.720;2022-12-16T01:19:54;71198.09;;;-0.69;100.00
10909;BME280;5507;48.548;8.720;2022-12-16T01:22:20;71206.78;;;-0.61;100.00
10909;BME280;5507;48.548;8.720;2022-12-16T01:24:46;71187.69;;;-0.78;100.00
10909;BME280;5507;48.548;8.720;2022-12-16T01:27:12;71186.53;;;-0.79;100.00
10909;BME280;5507;48.548;8.720;2022-12-16T01:29:37;71182.47;;;-0.82;100.00
10909;BME280;5507;48.548;8.720;2022-12-16T01:32:03;71172.50;;;-0.86;100.00
10909;BME280;5507;48.548;8.720;2022-12-16T01:34:29;71170.88;;;-0.93;100.00
10909;BME280;5507;48.548;8.720;2022-12-16T01:36:54;71192.91;;;-0.73;100.00
10909;BME280;5507;48.548;8.720;2022-12-16T01:39:19;71182.69;;;-0.80;100.00
10909;BME280;5507;48.548;8.720;2022-12-16T01:41:45;71195.34;;;-0.76;100.00
10909;BME280;5507;48.548;8.720;2022-12-16T01:44:18;71175.16;;;-0.86;100.00
10909;BME280;5507;48.548;8.720;2022-12-16T01:47:04;71179.00;;;-0.85;100.00
10909;BME280;5507;48.548;8.720;2022-12-16T01:49:38;71189.41;;;-0.76;100.00
10909;BME280;5507;48.548;8.720;2022-12-16T01:52:09;71195.19;;;-0.71;100.00
10909;BME280;5507;48.548;8.720;2022-12-16T01:54:42;71178.41;;;-0.86;100.00
10909;BME280;5507;48.548;8.720;2022-12-16T01:57:11;71175.50;;;-0.88;100.00
10909;BME280;5507;48.548;8.720;2022-12-16T01:59:40;71175.16;;;-0.86;100.00
10909;BME280;5507;48.548;8.720;2022-12-16T02:02:08;71185.34;;;-0.80;100.00
10909;BME280;5507;48.548;8.720;2022-12-16T02:04:34;71159.91;;;-1.02;100.00
10909;BME280;5507;48.548;8.720;2022-12-16T02:07:00;71157.22;;;-1.02;100.00
10909;BME280;5507;48.548;8.720;2022-12-16T02:09:25;71163.72;;;-1.01;100.00
10909;BME280;5507;48.548;8.720;2022-12-16T02:14:42;71172.28;;;-0.89;100.00
10909;BME280;5507;48.548;8.720;2022-12-16T02:17:52;71158.53;;;-1.06;100.00
10909;BME280;5507;48.548;8.720;2022-12-16T02:29:05;71182.81;;;-0.84;100.00
10909;BME280;5507;48.548;8.720;2022-12-16T02:31:43;71172.28;;;-0.89;100.00
10909;BME280;5507;48.548;8.720;2022-12-16T02:40:12;71161.63;;;-1.01;100.00
10909;BME280;5507;48.548;8.720;2022-12-16T02:42:53;71174.13;;;-0.92;100.00
10909;BME280;5507;48.548;8.720;2022-12-16T02:45:25;71138.47;;;-1.21;100.00
10909;BME280;5507;48.548;8.720;2022-12-16T02:47:52;71148.19;;;-1.08;100.00
10909;BME280;5507;48.548;8.720;2022-12-16T02:50:22;71167.41;;;-0.96;100.00
10909;BME280;5507;48.548;8.720;2022-12-16T02:52:48;71155.84;;;-1.06;100.00
10909;BME280;5507;48.548;8.720;2022-12-16T02:55:15;71167.41;;;-0.96;100.00
10909;BME280;5507;48.548;8.720;2022-12-16T03:02:45;71180.97;;;-0.81;100.00
10909;BME280;5507;48.548;8.720;2022-12-16T03:05:29;71181.88;;;-0.83;100.00
10909;BME280;5507;48.548;8.720;2022-12-16T03:07:58;71178.19;;;-0.88;100.00
10909;BME280;5507;48.548;8.720;2022-12-16T03:10:27;71153.19;;;-1.06;100.00
10909;BME280;5507;48.548;8.720;2022-12-16T03:12:55;71177.84;;;-0.86;100.00
10909;BME280;5507;48.548;8.720;2022-12-16T03:15:24;71168.78;;;-0.92;100.00
10909;BME280;5507;48.548;8.720;2022-12-16T03:17:51;71185.13;;;-0.82;100.00
10909;BME280;5507;48.548;8.720;2022-12-16T03:20:35;71167.06;;;-0.93;100.00
10909;BME280;5507;48.548;8.720;2022-12-16T03:23:12;71162.19;;;-1.00;100.00
10909;BME280;5507;48.548;8.720;2022-12-16T03:25:42;71168.22;;;-0.93;100.00
10909;BME280;5507;48.548;8.720;2022-12-16T03:28:35;71166.63;;;-0.99;100.00
10909;BME280;5507;48.548;8.720;2022-12-16T03:31:13;71170.66;;;-0.95;100.00
10909;BME280;5507;48.548;8.720;2022-12-16T03:33:48;71147.16;;;-1.13;100.00
10909;BME280;5507;48.548;8.720;2022-12-16T03:36:21;71163.38;;;-0.99;100.00
10909;BME280;5507;48.548;8.720;2022-12-16T03:38:48;71164.53;;;-0.98;100.00
10909;BME280;5507;48.548;8.720;2022-12-16T03:41:16;71171.13;;;-0.90;100.00
10909;BME280;5507;48.548;8.720;2022-12-16T03:43:43;71161.97;;;-1.03;100.00
10909;BME280;5507;48.548;8.720;2022-12-16T03:46:09;71163.38;;;-0.99;100.00
10909;BME280;5507;48.548;8.720;2022-12-16T03:48:35;71162.78;;;-1.00;100.00
10909;BME280;5507;48.548;8.720;2022-12-16T03:51:01;71164.53;;;-0.98;100.00
10909;BME280;5507;48.548;8.720;2022-12-16T03:53:26;71145.06;;;-1.13;100.00
10909;BME280;5507;48.548;8.720;2022-12-16T03:55:53;71152.94;;;-1.08;100.00
10909;BME280;5507;48.548;8.720;2022-12-16T03:58:18;71147.72;;;-1.13;100.00
10909;BME280;5507;48.548;8.720;2022-12-16T04:00:44;71150.06;;;-1.11;100.00
10909;BME280;5507;48.548;8.720;2022-12-16T04:03:10;71149.69;;;-1.09;100.00
10909;BME280;5507;48.548;8.720;2022-12-16T04:05:35;71149.13;;;-1.09;100.00
10909;BME280;5507;48.548;8.720;2022-12-16T04:08:00;71141.25;;;-1.14;100.00
10909;BME280;5507;48.548;8.720;2022-12-16T04:10:26;71148.88;;;-1.12;100.00
10909;BME280;5507;48.548;8.720;2022-12-16T04:13:10;71164.53;;;-0.98;100.00
10909;BME280;5507;48.548;8.720;2022-12-16T04:15:54;71142.53;;;-1.17;100.00
10909;BME280;5507;48.548;8.720;2022-12-16T04:18:39;71147.50;;;-1.15;100.00
10909;BME280;5507;48.548;8.720;2022-12-16T04:21:24;71158.53;;;-1.06;100.00
10909;BME280;5507;48.548;8.720;2022-12-16T04:24:13;71131.75;;;-1.24;100.00
10909;BME280;5507;48.548;8.720;2022-12-16T04:26:48;71157.81;;;-1.02;100.00
10909;BME280;5507;48.548;8.720;2022-12-16T04:29:32;71160.25;;;-1.04;100.00
10909;BME280;5507;48.548;8.720;2022-12-16T04:31:59;71150.06;;;-1.11;100.00
10909;BME280;5507;48.548;8.720;2022-12-16T04:34:25;71165.69;;;-0.97;100.00
10909;BME280;5507;48.548;8.720;2022-12-16T04:37:01;71161.63;;;-1.01;100.00
10909;BME280;5507;48.548;8.720;2022-12-16T04:39:46;71168.00;;;-0.95;100.00
10909;BME280;5507;48.548;8.720;2022-12-16T04:42:30;71176.66;;;-0.87;100.00
10909;BME280;5507;48.548;8.720;2022-12-16T04:45:14;71171.47;;;-0.92;100.00
10909;BME280;5507;48.548;8.720;2022-12-16T04:47:58;71167.88;;;-0.90;100.00
10909;BME280;5507;48.548;8.720;2022-12-16T04:50:43;71186.31;;;-0.81;100.00
10909;BME280;5507;48.548;8.720;2022-12-16T04:53:27;71160.69;;;-0.99;100.00
10909;BME280;5507;48.548;8.720;2022-12-16T04:56:11;71166.25;;;-0.97;100.00
10909;BME280;5507;48.548;8.720;2022-12-16T04:58:55;71171.81;;;-0.94;100.00
10909;BME280;5507;48.548;8.720;2022-12-16T05:01:39;71178.19;;;-0.88;100.00
10909;BME280;5507;48.548;8.720;2022-12-16T05:04:23;71175.88;;;-0.90;100.00
10909;BME280;5507;48.548;8.720;2022-12-16T05:07:07;71168.38;;;-0.97;100.00
10909;BME280;5507;48.548;8.720;2022-12-16T05:09:50;71166.25;;;-0.97;100.00
10909;BME280;5507;48.548;8.720;2022-12-16T05:12:35;71168.56;;;-0.95;100.00
10909;BME280;5507;48.548;8.720;2022-12-16T05:15:18;71175.28;;;-0.91;100.00
10909;BME280;5507;48.548;8.720;2022-12-16T05:18:13;71181.53;;;-0.81;100.00
10909;BME280;5507;48.548;8.720;2022-12-16T05:20:58;71173.66;;;-0.85;100.00
10909;BME280;5507;48.548;8.720;2022-12-16T05:23:43;71183.06;;;-0.82;100.00
10909;BME280;5507;48.548;8.720;2022-12-16T05:26:26;71176.66;;;-0.87;100.00
10909;BME280;5507;48.548;8.720;2022-12-16T05:29:10;71192.31;;;-0.74;100.00
10909;BME280;5507;48.548;8.720;2022-12-16T05:31:55;71180.97;;;-0.81;100.00
10909;BME280;5507;48.548;8.720;2022-12-16T05:34:39;71177.84;;;-0.86;100.00
10909;BME280;5507;48.548;8.720;2022-12-16T05:37:23;71182.47;;;-0.82;100.00
10909;BME280;5507;48.548;8.720;2022-12-16T05:40:09;71185.59;;;-0.77;100.00
10909;BME280;5507;48.548;8.720;2022-12-16T05:42:53;71177.47;;;-0.84;100.00
10909;BME280;5507;48.548;8.720;2022-12-16T05:45:38;71185.94;;;-0.79;100.00
10909;BME280;5507;48.548;8.720;2022-12-16T05:48:42;71187.91;;;-0.75;100.00
10909;BME280;5507;48.548;8.720;2022-12-16T05:51:25;71193.25;;;-0.75;100.00
10909;BME280;5507;48.548;8.720;2022-12-16T05:54:10;71192.66;;;-0.76;100.00
10909;BME280;5507;48.548;8.720;2022-12-16T05:56:53;71185.34;;;-0.80;100.00
10909;BME280;5507;48.548;8.720;2022-12-16T05:59:38;71184.56;;;-0.83;100.00
10909;BME280;5507;48.548;8.720;2022-12-16T06:02:22;71185.72;;;-0.82;100.00
10909;BME280;5507;48.548;8.720;2022-12-16T06:05:07;71183.63;;;-0.81;100.00
10909;BME280;5507;48.548;8.720;2022-12-16T06:07:51;71194.41;;;-0.74;100.00
10909;BME280;5507;48.548;8.720;2022-12-16T06:10:35;71190.56;;;-0.75;100.00
10909;BME280;5507;48.548;8.720;2022-12-16T06:13:19;71191.94;;;-0.72;100.00
10909;BME280;5507;48.548;8.720;2022-12-16T06:16:03;71191.16;;;-0.75;100.00
10909;BME280;5507;48.548;8.720;2022-12-16T06:18:47;71167.06;;;-0.93;100.00
10909;BME280;5507;48.548;8.720;2022-12-16T06:21:31;71170.88;;;-0.93;100.00
10909;BME280;5507;48.548;8.720;2022-12-16T06:24:15;71172.16;;;-0.96;100.00
10909;BME280;5507;48.548;8.720;2022-12-16T06:26:59;71177.38;;;-0.91;100.00
10909;BME280;5507;48.548;8.720;2022-12-16T06:29:43;71163.56;;;-0.97;100.00
10909;BME280;5507;48.548;8.720;2022-12-16T06:32:27;71158.72;;;-1.03;100.00
10909;BME280;5507;48.548;8.720;2022-12-16T06:35:11;71161.06;;;-1.01;100.00
10909;BME280;5507;48.548;8.720;2022-12-16T06:37:55;71162.44;;;-0.98;100.00
10909;BME280;5507;48.548;8.720;2022-12-16T06:40:39;71178.41;;;-0.86;100.00
10909;BME280;5507;48.548;8.720;2022-12-16T06:43:23;71180.84;;;-0.88;100.00
10909;BME280;5507;48.548;8.720;2022-12-16T06:46:07;71167.41;;;-0.96;100.00
10909;BME280;5507;48.548;8.720;2022-12-16T06:48:51;71165.44;;;-1.00;100.00
10909;BME280;5507;48.548;8.720;2022-12-16T06:51:35;71159.31;;;-1.03;100.00
10909;BME280;5507;48.548;8.720;2022-12-16T06:54:23;71164.16;;;-0.96;100.00
10909;BME280;5507;48.548;8.720;2022-12-16T06:57:07;71175.88;;;-0.90;100.00
10909;BME280;5507;48.548;8.720;2022-12-16T06:59:51;71175.50;;;-0.88;100.00
10909;BME280;5507;48.548;8.720;2022-12-16T07:02:35;71167.66;;;-0.93;100.00
10909;BME280;5507;48.548;8.720;2022-12-16T07:05:19;71167.66;;;-0.93;100.00
10909;BME280;5507;48.548;8.720;2022-12-16T07:08:03;71169.16;;;-0.94;100.00
10909;BME280;5507;48.548;8.720;2022-12-16T07:10:47;71179.00;;;-0.85;100.00
10909;BME280;5507;48.548;8.720;2022-12-16T07:13:31;71181.66;;;-0.85;100.00
10909;BME280;5507;48.548;8.720;2022-12-16T07:16:14;71183.75;;;-0.86;100.00
10909;BME280;5507;48.548;8.720;2022-12-16T07:18:58;71176.47;;;-0.90;100.00
10909;BME280;5507;48.548;8.720;2022-12-16T07:21:42;71165.69;;;-0.97;100.00
10909;BME280;5507;48.548;8.720;2022-12-16T07:24:26;71172.03;;;-0.91;100.00
10909;BME280;5507;48.548;8.720;2022-12-16T07:27:10;71165.09;;;-0.98;100.00
10909;BME280;5507;48.548;8.720;2022-12-16T07:29:54;71170.66;;;-0.95;100.00
10909;BME280;5507;48.548;8.720;2022-12-16T07:32:38;71168.38;;;-0.97;100.00
10909;BME280;5507;48.548;8.720;2022-12-16T07:35:22;71175.66;;;-0.93;100.00
10909;BME280;5507;48.548;8.720;2022-12-16T07:38:06;71164.88;;;-1.00;100.00
10909;BME280;5507;48.548;8.720;2022-12-16T07:41:04;71173.56;;;-0.93;100.00
10909;BME280;5507;48.548;8.720;2022-12-16T07:43:48;71183.63;;;-0.81;100.00
10909;BME280;5507;48.548;8.720;2022-12-16T07:46:31;71177.84;;;-0.86;100.00
10909;BME280;5507;48.548;8.720;2022-12-16T07:49:16;71181.66;;;-0.85;100.00
10909;BME280;5507;48.548;8.720;2022-12-16T07:52:00;71168.38;;;-0.97;100.00
10909;BME280;5507;48.548;8.720;2022-12-16T07:54:43;71166.50;;;-0.94;100.00
10909;BME280;5507;48.548;8.720;2022-12-16T07:57:27;71169.75;;;-0.93;100.00
10909;BME280;5507;48.548;8.720;2022-12-16T08:00:12;71174.94;;;-0.89;100.00
10909;BME280;5507;48.548;8.720;2022-12-16T08:02:56;71180.72;;;-0.84;100.00
10909;BME280;5507;48.548;8.720;2022-12-16T08:05:39;71191.72;;;-0.74;100.00
10909;BME280;5507;48.548;8.720;2022-12-16T08:08:23;71198.91;;;-0.66;100.00
10909;BME280;5507;48.548;8.720;2022-12-16T08:11:07;71210.59;;;-0.60;100.00
10909;BME280;5507;48.548;8.720;2022-12-16T08:13:51;71212.00;;;-0.57;100.00
10909;BME280;5507;48.548;8.720;2022-12-16T08:16:35;71209.91;;;-0.56;100.00
10909;BME280;5507;48.548;8.720;2022-12-16T08:19:19;71211.19;;;-0.60;100.00
10909;BME280;5507;48.548;8.720;2022-12-16T08:22:03;71225.09;;;-0.48;100.00
10909;BME280;5507;48.548;8.720;2022-12-16T08:24:47;71219.53;;;-0.50;100.00
10909;BME280;5507;48.548;8.720;2022-12-16T08:27:31;71220.69;;;-0.49;100.00
10909;BME280;5507;48.548;8.720;2022-12-16T08:30:15;71219.06;;;-0.55;100.00
10909;BME280;5507;48.548;8.720;2022-12-16T08:32:59;71221.84;;;-0.48;100.00
10909;BME280;5507;48.548;8.720;2022-12-16T08:35:43;71226.47;;;-0.44;100.00
10909;BME280;5507;48.548;8.720;2022-12-16T08:38:27;71228.78;;;-0.42;100.00
10909;BME280;5507;48.548;8.720;2022-12-16T08:41:11;71234.13;;;-0.42;100.00
10909;BME280;5507;48.548;8.720;2022-12-16T08:43:55;71235.72;;;-0.36;100.00
10909;BME280;5507;48.548;8.720;2022-12-16T08:46:39;71235.72;;;-0.36;100.00
10909;BME280;5507;48.548;8.720;2022-12-16T08:49:23;71256.94;;;-0.20;100.00
10909;BME280;5507;48.548;8.720;2022-12-16T08:52:07;71261.00;;;-0.16;100.00
10909;BME280;5507;48.548;8.720;2022-12-16T08:54:51;71267.81;;;-0.06;100.00
10909;BME280;5507;48.548;8.720;2022-12-16T08:57:35;71272.81;;;-0.04;100.00
10909;BME280;5507;48.548;8.720;2022-12-16T09:00:19;71268.31;;;-0.12;100.00
10909;BME280;5507;48.548;8.720;2022-12-16T09:03:03;71253.91;;;-0.18;100.00
10909;BME280;5507;48.548;8.720;2022-12-16T09:05:47;71256.00;;;-0.18;100.00
10909;BME280;5507;48.548;8.720;2022-12-16T09:08:31;71265.28;;;-0.10;100.00
10909;BME280;5507;48.548;8.720;2022-12-16T09:11:15;71283.38;;;0.01;100.00
10909;BME280;5507;48.548;8.720;2022-12-16T09:13:59;71281.28;;;0.02;100.00
10909;BME280;5507;48.548;8.720;2022-12-16T09:16:43;71277.22;;;-0.02;100.00
10909;BME280;5507;48.548;8.720;2022-12-16T09:19:27;71272.81;;;-0.04;100.00
10909;BME280;5507;48.548;8.720;2022-12-16T09:22:10;71267.59;;;-0.08;100.00
10909;BME280;5507;48.548;8.720;2022-12-16T09:24:54;71284.41;;;0.07;100.00
10909;BME280;5507;48.548;8.720;2022-12-16T09:27:38;71302.00;;;0.24;100.00
10909;BME280;5507;48.548;8.720;2022-12-16T09:30:22;71310.47;;;0.29;100.00
10909;BME280;5507;48.548;8.720;2022-12-16T09:33:06;71315.09;;;0.33;100.00
10909;BME280;5507;48.548;8.720;2022-12-16T09:35:50;71334.94;;;0.46;100.00
10909;BME280;5507;48.548;8.720;2022-12-16T09:38:34;71348.16;;;0.62;100.00
10909;BME280;5507;48.548;8.720;2022-12-16T09:41:40;71335.97;;;0.52;100.00
10909;BME280;5507;48.548;8.720;2022-12-16T09:44:53;71352.19;;;0.66;100.00
10909;BME280;5507;48.548;8.720;2022-12-16T09:48:02;71350.03;;;0.59;100.00
10909;BME280;5507;48.548;8.720;2022-12-16T09:50:52;71365.31;;;0.75;100.00
10909;BME280;5507;48.548;8.720;2022-12-16T09:53:39;71374.00;;;0.82;100.00
10909;BME280;5507;48.548;8.720;2022-12-16T09:56:29;71371.13;;;0.80;100.00
10909;BME280;5507;48.548;8.720;2022-12-16T09:59:23;71379.44;;;0.89;100.00
10909;BME280;5507;48.548;8.720;2022-12-16T10:02:10;71389.88;;;0.99;100.00
10909;BME280;5507;48.548;8.720;2022-12-16T10:04:54;71400.34;;;1.08;100.00
10909;BME280;5507;48.548;8.720;2022-12-16T10:07:43;71390.47;;;0.99;100.00
10909;BME280;5507;48.548;8.720;2022-12-16T10:10:53;71377.50;;;0.85;100.00
10909;BME280;5507;48.548;8.720;2022-12-16T10:14:04;71382.13;;;0.89;100.00
10909;BME280;5507;48.548;8.720;2022-12-16T10:17:07;71380.97;;;0.88;100.00
10909;BME280;5507;48.548;8.720;2022-12-16T10:20:14;71396.28;;;1.04;100.00
10909;BME280;5507;48.548;8.720;2022-12-16T10:23:28;71416.56;;;1.22;100.00
10909;BME280;5507;48.548;8.720;2022-12-16T10:26:21;71427.38;;;1.29;100.00
10909;BME280;5507;48.548;8.720;2022-12-16T10:29:16;71407.28;;;1.14;100.00
10909;BME280;5507;48.548;8.720;2022-12-16T10:32:09;71429.91;;;1.33;100.00
10909;BME280;5507;48.548;8.720;2022-12-16T10:34:57;71427.16;;;1.26;100.00
10909;BME280;5507;48.548;8.720;2022-12-16T10:37:41;71418.91;;;1.24;100.00
10909;BME280;5507;48.548;8.720;2022-12-16T10:40:29;71415.19;;;1.18;100.00
10909;BME280;5507;48.548;8.720;2022-12-16T10:43:34;71432.22;;;1.35;100.00
10909;BME280;5507;48.548;8.720;2022-12-16T10:46:40;71435.13;;;1.38;100.00
10909;BME280;5507;48.548;8.720;2022-12-16T10:49:25;71453.28;;;1.49;98.16
10909;BME280;5507;48.548;8.720;2022-12-16T10:52:11;71448.25;;;1.47;100.00
10909;BME280;5507;48.548;8.720;2022-12-16T10:55:17;71451.72;;;1.50;99.15
10909;BME280;5507;48.548;8.720;2022-12-16T10:58:14;71447.09;;;1.46;100.00
10909;BME280;5507;48.548;8.720;2022-12-16T11:01:20;71448.84;;;1.48;99.19
10909;BME280;5507;48.548;8.720;2022-12-16T11:10:34;71457.78;;;1.58;98.02
10909;BME280;5507;48.548;8.720;2022-12-16T11:13:32;71467.41;;;1.64;99.34
10909;BME280;5507;48.548;8.720;2022-12-16T11:16:26;71464.13;;;1.63;94.74
10909;BME280;5507;48.548;8.720;2022-12-16T11:19:24;71472.63;;;1.68;96.89
10909;BME280;5507;48.548;8.720;2022-12-16T11:22:22;71458.69;;;1.56;98.41
10909;BME280;5507;48.548;8.720;2022-12-16T11:25:16;71447.47;;;1.44;94.26
10909;BME280;5507;48.548;8.720;2022-12-16T11:28:12;71452.31;;;1.51;98.84
10909;BME280;5507;48.548;8.720;2022-12-16T11:30:59;71435.72;;;1.38;95.27
10909;BME280;5507;48.548;8.720;2022-12-16T11:33:46;71414.59;;;1.18;96.80
10909;BME280;5507;48.548;8.720;2022-12-16T11:36:32;71427.00;;;1.31;97.46
10909;BME280;5507;48.548;8.720;2022-12-16T11:39:19;71450.94;;;1.47;96.31
10909;BME280;5507;48.548;8.720;2022-12-16T11:42:05;71443.84;;;1.46;98.00
10909;BME280;5507;48.548;8.720;2022-12-16T11:44:54;71445.00;;;1.47;92.74
10909;BME280;5507;48.548;8.720;2022-12-16T11:47:50;71469.38;;;1.68;92.65
10909;BME280;5507;48.548;8.720;2022-12-16T11:50:40;71454.28;;;1.55;100.00
10909;BME280;5507;48.548;8.720;2022-12-16T11:56:58;71479.94;;;1.72;95.74
10909;BME280;5507;48.548;8.720;2022-12-16T11:59:56;71454.28;;;1.55;93.17
10909;BME280;5507;48.548;8.720;2022-12-16T12:02:55;71485.75;;;1.77;95.24
10909;BME280;5507;48.548;8.720;2022-12-16T12:06:18;71478.44;;;1.73;91.54
10909;BME280;5507;48.548;8.720;2022-12-16T12:09:20;71462.97;;;1.62;91.63
10909;BME280;5507;48.548;8.720;2022-12-16T12:14:54;71491.41;;;1.87;94.65
10909;BME280;5507;48.548;8.720;2022-12-16T12:21:07;71519.06;;;2.09;92.96
10909;BME280;5507;48.548;8.720;2022-12-16T12:24:08;71501.28;;;1.96;95.54
10909;BME280;5507;48.548;8.720;2022-12-16T12:42:30;71482.50;;;1.77;92.88
10909;BME280;5507;48.548;8.720;2022-12-16T12:48:17;71488.50;;;1.84;97.47
10909;BME280;5507;48.548;8.720;2022-12-16T12:51:17;71490.03;;;1.83;92.82
10909;BME280;5507;48.548;8.720;2022-12-16T12:54:19;71491.06;;;1.89;92.94
10909;BME280;5507;48.548;8.720;2022-12-16T12:57:05;71526.38;;;2.13;90.19
10909;BME280;5507;48.548;8.720;2022-12-16T12:59:59;71531.81;;;2.20;88.71
10909;BME280;5507;48.548;8.720;2022-12-16T13:03:00;71530.66;;;2.19;90.23
10909;BME280;5507;48.548;8.720;2022-12-16T13:05:46;71517.09;;;2.05;89.29
10909;BME280;5507;48.548;8.720;2022-12-16T13:11:19;71500.84;;;1.91;90.86
10909;BME280;5507;48.548;8.720;2022-12-16T13:17:13;71521.94;;;2.11;91.94
10909;BME280;5507;48.548;8.720;2022-12-16T13:19:57;71492.38;;;1.85;93.88
10909;BME280;5507;48.548;8.720;2022-12-16T13:22:42;71518.69;;;2.11;93.14
10909;BME280;5507;48.548;8.720;2022-12-16T13:28:37;71557.97;;;2.43;94.27
10909;BME280;5507;48.548;8.720;2022-12-16T13:31:23;71524.63;;;2.11;95.03
10909;BME280;5507;48.548;8.720;2022-12-16T13:36:58;71475.16;;;1.73;97.04
10909;BME280;5507;48.548;8.720;2022-12-16T13:39:58;71481.34;;;1.76;98.58
10909;BME280;5507;48.548;8.720;2022-12-16T13:48:37;71454.84;;;1.55;99.41
10909;BME280;5507;48.548;8.720;2022-12-16T13:54:43;71459.50;;;1.59;98.49
10909;BME280;5507;48.548;8.720;2022-12-16T13:57:29;71451.97;;;1.53;100.00
10909;BME280;5507;48.548;8.720;2022-12-16T14:00:23;71448.03;;;1.45;100.00
10909;BME280;5507;48.548;8.720;2022-12-16T14:03:16;71441.88;;;1.42;100.00
10909;BME280;5507;48.548;8.720;2022-12-16T14:06:04;71435.94;;;1.41;100.00
10909;BME280;5507;48.548;8.720;2022-12-16T14:08:49;71438.97;;;1.39;100.00
10909;BME280;5507;48.548;8.720;2022-12-16T14:14:41;71429.34;;;1.33;100.00
10909;BME280;5507;48.548;8.720;2022-12-16T14:17:40;71412.75;;;1.21;100.00
10909;BME280;5507;48.548;8.720;2022-12-16T14:20:35;71422.75;;;1.25;100.00
10909;BME280;5507;48.548;8.720;2022-12-16T14:23:31;71398.16;;;1.01;100.00
10909;BME280;5507;48.548;8.720;2022-12-16T14:26:17;71367.66;;;0.77;100.00
10909;BME280;5507;48.548;8.720;2022-12-16T14:29:03;71370.75;;;0.82;100.00
10909;BME280;5507;48.548;8.720;2022-12-16T14:31:55;71368.66;;;0.82;100.00
10909;BME280;5507;48.548;8.720;2022-12-16T14:34:39;71362.44;;;0.72;100.00
10909;BME280;5507;48.548;8.720;2022-12-16T14:37:36;71339.81;;;0.53;100.00
10909;BME280;5507;48.548;8.720;2022-12-16T14:40:24;71308.75;;;0.28;100.00
10909;BME280;5507;48.548;8.720;2022-12-16T14:45:58;71306.78;;;0.24;100.00
10909;BME280;5507;48.548;8.720;2022-12-16T14:48:45;71298.66;;;0.17;100.00
10909;BME280;5507;48.548;8.720;2022-12-16T14:51:36;71285.91;;;0.06;100.00
10909;BME280;5507;48.548;8.720;2022-12-16T14:54:41;71270.84;;;-0.08;100.00
10909;BME280;5507;48.548;8.720;2022-12-16T14:57:27;71256.00;;;-0.18;100.00
10909;BME280;5507;48.548;8.720;2022-12-16T15:00:20;71248.84;;;-0.27;100.00
10909;BME280;5507;48.548;8.720;2022-12-16T15:06:03;71227.03;;;-0.43;100.00
10909;BME280;5507;48.548;8.720;2022-12-16T15:08:55;71228.00;;;-0.45;100.00
10909;BME280;5507;48.548;8.720;2022-12-16T15:11:42;71212.00;;;-0.57;100.00
10909;BME280;5507;48.548;8.720;2022-12-16T15:14:29;71200.19;;;-0.69;100.00
10909;BME280;5507;48.548;8.720;2022-12-16T15:17:56;71191.94;;;-0.72;100.00
10909;BME280;5507;48.548;8.720;2022-12-16T15:20:52;71196.16;;;-0.73;100.00
10909;BME280;5507;48.548;8.720;2022-12-16T15:23:42;71174.38;;;-0.89;100.00
10909;BME280;5507;48.548;8.720;2022-12-16T15:26:30;71178.63;;;-0.83;100.00
10909;BME280;5507;48.548;8.720;2022-12-16T15:29:40;71170.88;;;-0.93;100.00
10909;BME280;5507;48.548;8.720;2022-12-16T15:35:24;71165.31;;;-0.95;100.00
10909;BME280;5507;48.548;8.720;2022-12-16T15:38:30;71161.19;;;-1.06;100.00
10909;BME280;5507;48.548;8.720;2022-12-16T15:41:35;71150.28;;;-1.08;100.00
10909;BME280;5507;48.548;8.720;2022-12-16T15:44:22;71148.09;;;-1.15;100.00
10909;BME280;5507;48.548;8.720;2022-12-16T15:47:32;71165.69;;;-0.97;100.00
10909;BME280;5507;48.548;8.720;2022-12-16T15:50:23;71154.69;;;-1.07;100.00
10909;BME280;5507;48.548;8.720;2022-12-16T15:53:22;71144.84;;;-1.15;100.00
10909;BME280;5507;48.548;8.720;2022-12-16T15:56:42;71149.34;;;-1.07;100.00
10909;BME280;5507;48.548;8.720;2022-12-16T15:59:30;71152.34;;;-1.09;100.00